Terminal Aerodrome Forecast
Issued by NWS Tallahassee, FL

Home | Current Version | Previous Version | Text Only | Print | Product List | Glossary On
Versions: 1 2 3 4 5 6 7 8 9 10 11 12 13 14 15 16 17 18 19
000
FTUS42 KTAE 180500
TAFTLH
TAF
KTLH 180520Z 1806/1906 30003KT P6SM SCT110
     FM181400 33005KT P6SM SKC
     FM181900 28007KT P6SM SCT060
     FM190200 00000KT P6SM SCT250=

USA.gov is the U.S. government's official web portal to all federal, state and local government web resources and services.